CJK4 weather

Esterhazy Airport
Esterhazy, Saskatchewan, Canada

Public forecast

Using degrees Celsius for public forecast. Weather courtesy of forecast.io.

Closest aviation weather report (METAR) to Esterhazy Airport

Closest report is Yorkton Municipal Airport, 39.8 nm (73.7 km) NNW. Retrieved 2019/12/07 18:37 UTC (0 seconds ago):

CYQV 071837Z AUTO 32004KT 5/8SM BR VV003 M07/M07 A2958 RMK SLP057

Closest aviation forecast (TAF) to Esterhazy Airport

Closest forecast is Yorkton Municipal Airport, 39.8 nm (73.7 km) NNW. Retrieved 2019/12/07 18:45 UTC (0 seconds ago):

TAF TAF CYQV 071741Z 0718/0806 34006KT 2SM -SN BR OVC003 TEMPO 0718/0720 P6SM NSW SCT003 OVC008 FM072000 35010KT 4SM -SN BR OVC006 TEMPO 0720/0803 P6SM NSW SCT006 OVC015 FM080300 35010KT P6SM BKN015 BKN060 TEMPO 0803/0806 SCT015 BKN080 RMK FCST BASED ON AUTO OBS NXT FCST BY 080000Z